Time;durP1;ratioP1;P1;durP2;ratioP2;P2;SDS_P1;SDS_P2;PMS_P1;PMS_P2;Temp;Humidity;BMP_temperature;BMP_pressure;BME280_temperature;BME280_humidity;BME280_pressure;Samples;Min_cycle;Max_cycle;Signal;HPM_P1;HPM_P2
2022/07/29 00:01:25;;;;;;;;;;;20.90;63.20;;;;;;5023199;28;19913;-67
2022/07/29 00:03:50;;;;;;;;;;;20.90;63.20;;;;;;5023889;28;19913;-67
2022/07/29 00:06:16;;;;;;;;;;;20.80;63.10;;;;;;5023711;28;20318;-67
2022/07/29 00:08:41;;;;;;;;;;;20.80;63.20;;;;;;5023809;28;19913;-67
2022/07/29 00:11:07;;;;;;;;;;;20.80;63.20;;;;;;5023954;28;19962;-67
2022/07/29 00:13:32;;;;;;;;;;;20.80;63.10;;;;;;5022483;28;19913;-67
2022/07/29 00:15:58;;;;;;;;;;;20.80;63.20;;;;;;5023108;28;20392;-67
2022/07/29 00:18:23;;;;;;;;;;;20.70;63.10;;;;;;5023474;28;19913;-67
2022/07/29 00:20:49;;;;;;;;;;;20.70;63.20;;;;;;5022379;28;20554;-67
2022/07/29 00:23:14;;;;;;;;;;;20.70;63.20;;;;;;5023501;28;20008;-67
2022/07/29 00:25:40;;;;;;;;;;;20.70;63.10;;;;;;5023373;28;19913;-67
2022/07/29 00:28:05;;;;;;;;;;;20.70;63.40;;;;;;5023459;28;20562;-67
2022/07/29 00:30:31;;;;;;;;;;;20.70;63.90;;;;;;5023609;28;20313;-67
2022/07/29 00:32:56;;;;;;;;;;;20.70;63.20;;;;;;5024112;28;19967;-67
2022/07/29 00:38:06;;;;;;;;;;;20.60;63.20;;;;;;5036738;28;19924;-67
2022/07/29 00:40:31;;;;;;;;;;;20.60;63.90;;;;;;5031519;28;19913;-67
2022/07/29 00:42:57;;;;;;;;;;;20.60;63.30;;;;;;5023346;28;19914;-67
2022/07/29 00:45:23;;;;;;;;;;;20.60;63.40;;;;;;5023236;28;19921;-67
2022/07/29 00:47:48;;;;;;;;;;;20.60;63.40;;;;;;5021116;28;19913;-67
2022/07/29 00:50:14;;;;;;;;;;;20.50;63.30;;;;;;5028891;28;19921;-67
2022/07/29 00:52:40;;;;;;;;;;;20.50;63.40;;;;;;5041086;28;19946;-67
2022/07/29 00:55:07;;;;;;;;;;;20.50;64.00;;;;;;5041225;28;19916;-67
2022/07/29 00:57:32;;;;;;;;;;;20.50;63.30;;;;;;5041272;28;19912;-67
2022/07/29 00:59:58;;;;;;;;;;;20.50;63.40;;;;;;5041216;28;19913;-67
2022/07/29 01:02:23;;;;;;;;;;;20.50;63.30;;;;;;5023165;28;19913;-67
2022/07/29 01:04:49;;;;;;;;;;;20.40;63.40;;;;;;5025825;28;19990;-67
2022/07/29 01:07:15;;;;;;;;;;;20.40;63.40;;;;;;5004497;28;19917;-67
2022/07/29 01:09:42;;;;;;;;;;;20.40;63.40;;;;;;5022654;28;19913;-67
2022/07/29 01:12:08;;;;;;;;;;;20.40;63.10;;;;;;5023069;28;19913;-67
2022/07/29 01:14:33;;;;;;;;;;;20.30;63.30;;;;;;5023027;28;20561;-67
2022/07/29 01:17:02;;;;;;;;;;;20.30;63.40;;;;;;5022699;28;19910;-67
2022/07/29 01:19:30;;;;;;;;;;;20.30;63.50;;;;;;5030206;28;20007;-67
2022/07/29 01:21:57;;;;;;;;;;;20.30;63.40;;;;;;5040429;28;19973;-67
2022/07/29 01:24:32;;;;;;;;;;;20.30;63.40;;;;;;5039942;28;19913;-67
2022/07/29 01:27:03;;;;;;;;;;;20.30;63.50;;;;;;5040641;28;20027;-67
2022/07/29 01:29:34;;;;;;;;;;;20.30;63.60;;;;;;5040480;28;19923;-67
2022/07/29 01:32:05;;;;;;;;;;;20.30;63.60;;;;;;5038033;28;19996;-67
2022/07/29 01:34:50;;;;;;;;;;;20.20;63.50;;;;;;5023029;28;19930;-67
2022/07/29 01:37:19;;;;;;;;;;;20.20;63.60;;;;;;5022408;28;20007;-67
2022/07/29 01:39:47;;;;;;;;;;;20.20;63.60;;;;;;5032359;28;20881;-67
2022/07/29 01:42:15;;;;;;;;;;;20.20;63.70;;;;;;5022168;28;19996;-67
2022/07/29 01:44:55;;;;;;;;;;;20.10;63.70;;;;;;5021908;28;19921;-67
2022/07/29 01:47:23;;;;;;;;;;;20.10;63.80;;;;;;5022144;28;19917;-67
2022/07/29 01:49:50;;;;;;;;;;;20.10;63.80;;;;;;5022401;28;19941;-67
2022/07/29 01:52:37;;;;;;;;;;;20.10;63.70;;;;;;5028091;28;19945;-67
2022/07/29 01:55:04;;;;;;;;;;;20.10;63.80;;;;;;5027713;28;20365;-67
2022/07/29 01:57:31;;;;;;;;;;;20.10;63.90;;;;;;5040166;28;20510;-67
2022/07/29 01:59:58;;;;;;;;;;;20.00;63.80;;;;;;5040315;28;19957;-67
2022/07/29 02:02:24;;;;;;;;;;;20.00;63.90;;;;;;5022013;28;20609;-67
2022/07/29 02:04:50;;;;;;;;;;;20.00;63.90;;;;;;5034527;28;20657;-67
2022/07/29 02:07:17;;;;;;;;;;;20.00;63.90;;;;;;5039831;28;20450;-67
2022/07/29 02:09:43;;;;;;;;;;;20.00;64.00;;;;;;5019050;28;19917;-67
2022/07/29 02:12:10;;;;;;;;;;;19.90;64.10;;;;;;5018002;28;20394;-67
2022/07/29 02:14:40;;;;;;;;;;;19.90;64.00;;;;;;5022076;28;20030;-67
2022/07/29 02:17:06;;;;;;;;;;;19.90;64.10;;;;;;5015825;28;19938;-67
2022/07/29 02:19:32;;;;;;;;;;;19.90;64.10;;;;;;5017927;28;19913;-67
2022/07/29 02:21:58;;;;;;;;;;;19.90;64.10;;;;;;5039172;28;20338;-67
2022/07/29 02:24:24;;;;;;;;;;;19.90;64.20;;;;;;5039502;28;19920;-67
2022/07/29 02:26:50;;;;;;;;;;;19.80;64.10;;;;;;5027636;28;20020;-67
2022/07/29 02:29:16;;;;;;;;;;;19.80;64.90;;;;;;5039729;28;19989;-67
2022/07/29 02:31:43;;;;;;;;;;;19.80;64.20;;;;;;5039406;28;19913;-67
2022/07/29 02:34:10;;;;;;;;;;;19.80;64.30;;;;;;5040153;28;19972;-67
2022/07/29 02:36:36;;;;;;;;;;;19.80;64.20;;;;;;5042136;28;19920;-67
2022/07/29 02:39:03;;;;;;;;;;;19.80;64.40;;;;;;5043200;28;19916;-67
2022/07/29 02:41:48;;;;;;;;;;;19.70;64.40;;;;;;5025733;28;19925;-67
2022/07/29 02:44:15;;;;;;;;;;;19.70;64.40;;;;;;5021312;28;19917;-67
2022/07/29 02:47:01;;;;;;;;;;;19.70;64.40;;;;;;5024430;28;19921;-67
2022/07/29 02:49:46;;;;;;;;;;;19.70;64.50;;;;;;5023682;28;20103;-67
2022/07/29 02:52:15;;;;;;;;;;;19.70;64.60;;;;;;5024794;28;20048;-67
2022/07/29 02:54:46;;;;;;;;;;;19.60;64.40;;;;;;5024721;28;19984;-67
2022/07/29 02:57:30;;;;;;;;;;;19.70;64.50;;;;;;5024579;28;19913;-67
2022/07/29 02:59:57;;;;;;;;;;;19.60;64.50;;;;;;5033418;28;19924;-67
2022/07/29 03:02:23;;;;;;;;;;;19.60;64.50;;;;;;5041671;28;19913;-67
2022/07/29 03:04:50;;;;;;;;;;;19.60;64.60;;;;;;5042715;28;19936;-67
2022/07/29 03:07:17;;;;;;;;;;;19.60;64.50;;;;;;5041996;28;19919;-67
2022/07/29 03:09:44;;;;;;;;;;;19.60;64.60;;;;;;5039528;28;19916;-67
2022/07/29 03:12:10;;;;;;;;;;;19.60;64.70;;;;;;5003739;28;19920;-67
2022/07/29 03:14:36;;;;;;;;;;;19.50;64.60;;;;;;5008877;28;20362;-67
2022/07/29 03:17:02;;;;;;;;;;;19.50;64.70;;;;;;5029471;28;19924;-67
2022/07/29 03:19:28;;;;;;;;;;;19.50;64.70;;;;;;5026454;28;19921;-67
2022/07/29 03:21:55;;;;;;;;;;;19.50;64.80;;;;;;5042335;28;19912;-67
2022/07/29 03:24:24;;;;;;;;;;;19.50;64.80;;;;;;5041842;28;19912;-67
2022/07/29 03:26:50;;;;;;;;;;;19.50;64.80;;;;;;5042057;28;20437;-67
2022/07/29 03:29:15;;;;;;;;;;;19.50;64.90;;;;;;5042247;28;19952;-67
2022/07/29 03:31:41;;;;;;;;;;;19.50;64.90;;;;;;5039237;28;19917;-67
2022/07/29 03:34:06;;;;;;;;;;;19.50;64.90;;;;;;5029110;28;20241;-67
2022/07/29 03:36:32;;;;;;;;;;;19.40;64.90;;;;;;5027084;28;20020;-67
2022/07/29 03:38:57;;;;;;;;;;;19.50;65.10;;;;;;5031183;28;20280;-67
2022/07/29 03:41:24;;;;;;;;;;;19.40;65.00;;;;;;5023565;28;19917;-67
2022/07/29 03:43:51;;;;;;;;;;;19.40;64.90;;;;;;5021612;28;19931;-67
2022/07/29 03:46:17;;;;;;;;;;;19.40;65.10;;;;;;5020857;28;19974;-67
2022/07/29 03:48:46;;;;;;;;;;;19.40;65.10;;;;;;5025893;28;19913;-67
2022/07/29 03:51:12;;;;;;;;;;;19.40;65.00;;;;;;5039736;28;19935;-67
2022/07/29 03:53:37;;;;;;;;;;;19.40;65.00;;;;;;5039902;28;20477;-67
2022/07/29 03:56:03;;;;;;;;;;;19.40;64.90;;;;;;5040512;28;19917;-67
2022/07/29 03:58:30;;;;;;;;;;;19.40;64.90;;;;;;5040894;28;19917;-67
2022/07/29 04:00:56;;;;;;;;;;;19.30;65.60;;;;;;5036832;28;19986;-67
2022/07/29 04:03:22;;;;;;;;;;;19.30;65.00;;;;;;5028489;28;19930;-67
2022/07/29 04:06:01;;;;;;;;;;;19.40;65.10;;;;;;5038880;28;20003;-67
2022/07/29 04:08:26;;;;;;;;;;;19.30;64.90;;;;;;5040681;28;19913;-67
2022/07/29 04:10:52;;;;;;;;;;;19.30;65.00;;;;;;5027815;28;20373;-67
2022/07/29 04:13:18;;;;;;;;;;;19.30;65.00;;;;;;5016220;28;20691;-67
2022/07/29 04:15:44;;;;;;;;;;;19.30;65.10;;;;;;5022069;28;19917;-67
2022/07/29 04:18:09;;;;;;;;;;;19.30;65.00;;;;;;5018240;28;20022;-67
2022/07/29 04:20:35;;;;;;;;;;;19.30;65.00;;;;;;5022066;28;20352;-67
2022/07/29 04:23:00;;;;;;;;;;;19.30;65.00;;;;;;5029576;28;19921;-67
2022/07/29 04:25:26;;;;;;;;;;;19.30;64.80;;;;;;5022614;28;19935;-67
2022/07/29 04:28:01;;;;;;;;;;;19.30;65.10;;;;;;5022407;28;19956;-67
2022/07/29 04:30:26;;;;;;;;;;;19.30;65.00;;;;;;5022422;28;19913;-67
2022/07/29 04:32:52;;;;;;;;;;;19.30;64.40;;;;;;5023310;28;19919;-67
2022/07/29 04:35:18;;;;;;;;;;;19.30;65.10;;;;;;5023286;28;19928;-67
2022/07/29 04:37:43;;;;;;;;;;;19.30;64.90;;;;;;5023088;28;19953;-67
2022/07/29 04:40:09;;;;;;;;;;;19.30;64.60;;;;;;5032885;28;20390;-67
2022/07/29 04:42:35;;;;;;;;;;;19.20;64.90;;;;;;5023534;28;19924;-67
2022/07/29 04:45:00;;;;;;;;;;;19.20;65.10;;;;;;5023342;28;19927;-67
2022/07/29 04:47:26;;;;;;;;;;;19.30;65.10;;;;;;5023211;28;19977;-67
2022/07/29 04:49:51;;;;;;;;;;;19.30;65.10;;;;;;5030666;28;20364;-67
2022/07/29 04:52:17;;;;;;;;;;;19.30;64.50;;;;;;5041794;28;20524;-67
2022/07/29 04:54:42;;;;;;;;;;;19.20;65.00;;;;;;5041616;28;19917;-67
2022/07/29 04:57:08;;;;;;;;;;;19.20;65.00;;;;;;5038452;28;19917;-67
2022/07/29 04:59:33;;;;;;;;;;;19.20;65.00;;;;;;5022612;28;20229;-67
2022/07/29 05:01:58;;;;;;;;;;;19.20;64.70;;;;;;5023384;28;19913;-67
2022/07/29 05:04:24;;;;;;;;;;;19.20;64.60;;;;;;5019255;28;19917;-67
2022/07/29 05:06:50;;;;;;;;;;;19.20;65.00;;;;;;5023249;28;19930;-67
2022/07/29 05:09:15;;;;;;;;;;;19.20;65.00;;;;;;5022878;28;20016;-67
2022/07/29 05:11:41;;;;;;;;;;;19.20;65.00;;;;;;5022932;28;19913;-67
2022/07/29 05:14:06;;;;;;;;;;;19.20;64.90;;;;;;5004886;28;20427;-67
2022/07/29 05:16:32;;;;;;;;;;;19.20;64.90;;;;;;5022331;28;19917;-67
2022/07/29 05:18:57;;;;;;;;;;;19.20;64.90;;;;;;5022484;28;19913;-67
2022/07/29 05:21:23;;;;;;;;;;;19.20;65.10;;;;;;5022715;28;20620;-67
2022/07/29 05:23:48;;;;;;;;;;;19.20;65.10;;;;;;5022954;28;19913;-67
2022/07/29 05:26:14;;;;;;;;;;;19.20;65.20;;;;;;5022849;28;20013;-67
2022/07/29 05:28:39;;;;;;;;;;;19.20;65.10;;;;;;5023530;28;20008;-67
2022/07/29 05:31:05;;;;;;;;;;;19.20;65.10;;;;;;5022962;28;19917;-67
2022/07/29 05:33:31;;;;;;;;;;;19.20;65.20;;;;;;5004710;28;20384;-67
2022/07/29 05:35:57;;;;;;;;;;;19.20;64.90;;;;;;5022542;28;19917;-67
2022/07/29 05:38:22;;;;;;;;;;;19.20;65.10;;;;;;5026971;28;19920;-67
2022/07/29 05:40:48;;;;;;;;;;;19.20;65.20;;;;;;5010976;28;19948;-67
2022/07/29 05:43:13;;;;;;;;;;;19.20;65.20;;;;;;5022597;28;19914;-67
2022/07/29 05:45:39;;;;;;;;;;;19.20;65.20;;;;;;5021849;28;19932;-67
2022/07/29 05:48:04;;;;;;;;;;;19.20;65.20;;;;;;5022046;28;19924;-67
2022/07/29 05:50:30;;;;;;;;;;;19.30;65.20;;;;;;5022315;28;20008;-67
2022/07/29 05:52:55;;;;;;;;;;;19.30;65.30;;;;;;5022276;28;19964;-67
2022/07/29 05:55:21;;;;;;;;;;;19.30;65.20;;;;;;5021948;28;20381;-67
2022/07/29 05:57:46;;;;;;;;;;;19.30;65.20;;;;;;5036809;28;19920;-67
2022/07/29 06:00:12;;;;;;;;;;;19.20;65.20;;;;;;5030630;28;19913;-67
2022/07/29 06:02:37;;;;;;;;;;;19.30;65.30;;;;;;5029867;28;19981;-67
2022/07/29 06:05:03;;;;;;;;;;;19.30;65.40;;;;;;5021917;28;20429;-67
2022/07/29 06:07:29;;;;;;;;;;;19.30;65.40;;;;;;5021950;28;19929;-67
2022/07/29 06:09:54;;;;;;;;;;;19.30;65.30;;;;;;5022462;28;19957;-67
2022/07/29 06:12:20;;;;;;;;;;;19.30;65.30;;;;;;5022090;28;19948;-67
2022/07/29 06:14:45;;;;;;;;;;;19.30;65.20;;;;;;5021559;28;19924;-67
2022/07/29 06:17:11;;;;;;;;;;;19.40;65.30;;;;;;5021535;28;19913;-67
2022/07/29 06:19:37;;;;;;;;;;;19.40;65.40;;;;;;5024451;28;20365;-67
2022/07/29 06:22:02;;;;;;;;;;;19.40;65.40;;;;;;5039682;28;19913;-67
2022/07/29 06:24:28;;;;;;;;;;;19.40;65.30;;;;;;5022013;28;19966;-67
2022/07/29 06:26:53;;;;;;;;;;;19.40;65.40;;;;;;5038775;28;20039;-67
2022/07/29 06:29:19;;;;;;;;;;;19.50;65.40;;;;;;5039964;28;20048;-67
2022/07/29 06:31:44;;;;;;;;;;;19.50;65.40;;;;;;5039620;28;20582;-67
2022/07/29 06:34:10;;;;;;;;;;;19.50;65.40;;;;;;5039201;28;19973;-67
2022/07/29 06:36:36;;;;;;;;;;;19.50;65.50;;;;;;5038640;28;19917;-67
2022/07/29 06:39:06;;;;;;;;;;;19.60;65.40;;;;;;5034073;28;19931;-67
2022/07/29 06:41:31;;;;;;;;;;;19.60;65.40;;;;;;5002718;28;19920;-67
2022/07/29 06:43:57;;;;;;;;;;;19.50;65.50;;;;;;5020861;28;19957;-67
2022/07/29 06:46:22;;;;;;;;;;;19.60;65.60;;;;;;5021245;28;20008;-67
2022/07/29 06:48:48;;;;;;;;;;;19.60;65.50;;;;;;5022037;28;19913;-67
2022/07/29 06:51:14;;;;;;;;;;;19.60;65.50;;;;;;5021881;28;20019;-67
2022/07/29 06:53:39;;;;;;;;;;;19.60;65.50;;;;;;5021174;28;19913;-67
2022/07/29 06:56:08;;;;;;;;;;;19.60;65.40;;;;;;5021303;28;19925;-67
2022/07/29 06:58:33;;;;;;;;;;;19.60;65.50;;;;;;5021246;28;19952;-67
2022/07/29 07:01:01;;;;;;;;;;;19.60;65.50;;;;;;5021304;28;19972;-67
2022/07/29 07:03:26;;;;;;;;;;;19.70;65.50;;;;;;5021599;28;19963;-67
2022/07/29 07:05:52;;;;;;;;;;;19.70;65.60;;;;;;5021405;28;20363;-67
2022/07/29 07:08:19;;;;;;;;;;;19.70;65.50;;;;;;5003413;28;19913;-67
2022/07/29 07:10:44;;;;;;;;;;;19.70;65.50;;;;;;5003680;28;19917;-67
2022/07/29 07:13:10;;;;;;;;;;;19.80;65.40;;;;;;5021649;28;20757;-67
2022/07/29 07:15:36;;;;;;;;;;;19.80;65.40;;;;;;5021495;28;19969;-67
2022/07/29 07:18:02;;;;;;;;;;;19.90;65.40;;;;;;5003255;28;19913;-67
2022/07/29 07:20:28;;;;;;;;;;;19.90;65.30;;;;;;5020575;28;19913;-67
2022/07/29 07:22:53;;;;;;;;;;;20.00;65.30;;;;;;5023108;28;20004;-67
2022/07/29 07:25:19;;;;;;;;;;;20.00;65.20;;;;;;5024620;28;20526;-67
2022/07/29 07:27:44;;;;;;;;;;;20.00;65.20;;;;;;5024467;28;20060;-67
2022/07/29 07:30:10;;;;;;;;;;;20.10;65.20;;;;;;5024638;28;20563;-67
2022/07/29 07:32:35;;;;;;;;;;;20.20;65.20;;;;;;5024725;28;19914;-67
2022/07/29 07:35:01;;;;;;;;;;;20.20;65.10;;;;;;5024415;28;19917;-67
2022/07/29 07:37:27;;;;;;;;;;;20.20;65.10;;;;;;5024069;28;19917;-67
2022/07/29 07:39:52;;;;;;;;;;;20.30;65.10;;;;;;5014706;28;20300;-67
2022/07/29 07:42:18;;;;;;;;;;;20.30;65.00;;;;;;5006546;28;20695;-67
2022/07/29 07:44:45;;;;;;;;;;;20.30;64.90;;;;;;5024395;28;19924;-67
2022/07/29 07:47:14;;;;;;;;;;;20.40;65.00;;;;;;5023884;28;20003;-67
2022/07/29 07:49:40;;;;;;;;;;;20.40;65.10;;;;;;5030553;28;19913;-67
2022/07/29 07:52:05;;;;;;;;;;;20.40;65.10;;;;;;5039371;28;20442;-67
2022/07/29 07:54:31;;;;;;;;;;;20.40;65.10;;;;;;5023872;28;19912;-67
2022/07/29 07:56:56;;;;;;;;;;;20.40;65.20;;;;;;5023682;28;20519;-67
2022/07/29 07:59:22;;;;;;;;;;;20.40;65.30;;;;;;5042942;28;19919;-67
2022/07/29 08:01:49;;;;;;;;;;;20.40;65.30;;;;;;5018870;28;19913;-67
2022/07/29 08:04:14;;;;;;;;;;;20.40;65.40;;;;;;5023589;28;19921;-67
2022/07/29 08:06:40;;;;;;;;;;;20.40;65.30;;;;;;5041088;28;19913;-67
2022/07/29 08:09:06;;;;;;;;;;;20.50;65.40;;;;;;5042057;28;19939;-67
2022/07/29 08:11:31;;;;;;;;;;;20.50;65.40;;;;;;5024261;28;19926;-67
2022/07/29 08:13:57;;;;;;;;;;;20.50;65.40;;;;;;5023056;28;20388;-67
2022/07/29 08:16:24;;;;;;;;;;;20.50;65.30;;;;;;5022758;28;20023;-67
2022/07/29 08:18:50;;;;;;;;;;;20.60;65.30;;;;;;5023029;28;20419;-67
2022/07/29 08:21:16;;;;;;;;;;;20.60;65.30;;;;;;5022577;28;19913;-67
2022/07/29 08:23:48;;;;;;;;;;;20.60;66.00;;;;;;5005890;28;19921;-67
2022/07/29 08:26:14;;;;;;;;;;;20.70;65.30;;;;;;5023745;28;19956;-67
2022/07/29 08:28:45;;;;;;;;;;;20.70;65.30;;;;;;5023896;28;20427;-68
2022/07/29 08:31:11;;;;;;;;;;;20.70;65.20;;;;;;5024094;28;19920;-67
2022/07/29 08:33:36;;;;;;;;;;;20.80;65.10;;;;;;5022974;28;20619;-67
2022/07/29 08:36:02;;;;;;;;;;;20.80;65.10;;;;;;5023920;28;19927;-67
2022/07/29 08:38:28;;;;;;;;;;;20.80;65.10;;;;;;5030794;28;19913;-67
2022/07/29 08:40:53;;;;;;;;;;;20.80;65.00;;;;;;5029294;27;19967;-67
2022/07/29 08:43:19;;;;;;;;;;;20.80;64.90;;;;;;5005406;28;20559;-67
2022/07/29 08:45:46;;;;;;;;;;;20.80;64.90;;;;;;5022926;28;20720;-67
2022/07/29 08:48:12;;;;;;;;;;;20.90;64.90;;;;;;5005064;28;20008;-67
2022/07/29 08:50:38;;;;;;;;;;;20.90;65.00;;;;;;5023057;28;19919;-67
2022/07/29 08:53:03;;;;;;;;;;;20.90;65.00;;;;;;5023418;28;19913;-67
2022/07/29 08:55:29;;;;;;;;;;;20.90;65.00;;;;;;5023579;28;19917;-67
2022/07/29 08:57:57;;;;;;;;;;;20.80;65.00;;;;;;5022871;28;20209;-67
2022/07/29 09:00:23;;;;;;;;;;;20.90;65.20;;;;;;5023721;28;20342;-67
2022/07/29 09:02:51;;;;;;;;;;;20.80;65.10;;;;;;5023403;28;20330;-67
2022/07/29 09:05:17;;;;;;;;;;;20.90;65.20;;;;;;5022863;28;19960;-67
2022/07/29 09:07:43;;;;;;;;;;;20.80;65.20;;;;;;5022653;28;20015;-67
2022/07/29 09:10:09;;;;;;;;;;;20.80;65.20;;;;;;5022748;28;20340;-67
2022/07/29 09:12:35;;;;;;;;;;;20.80;65.30;;;;;;5023018;28;19922;-67
2022/07/29 09:15:00;;;;;;;;;;;20.80;65.30;;;;;;5023171;28;19930;-67
2022/07/29 09:17:45;;;;;;;;;;;20.80;65.30;;;;;;5030298;28;20650;-67
2022/07/29 09:20:12;;;;;;;;;;;20.80;65.40;;;;;;5004719;28;20285;-67
2022/07/29 09:22:38;;;;;;;;;;;20.80;65.50;;;;;;5004217;28;19913;-67
2022/07/29 09:25:04;;;;;;;;;;;20.80;65.60;;;;;;5004626;28;20677;-67
2022/07/29 09:27:29;;;;;;;;;;;20.80;65.50;;;;;;5004316;28;19997;-67
2022/07/29 09:30:04;;;;;;;;;;;20.80;65.60;;;;;;5021923;28;19913;-67
2022/07/29 09:32:29;;;;;;;;;;;20.80;65.70;;;;;;5021594;28;20046;-67
2022/07/29 09:35:14;;;;;;;;;;;20.80;65.60;;;;;;5021642;28;19983;-67
2022/07/29 09:37:39;;;;;;;;;;;20.80;65.60;;;;;;5020545;28;19915;-67
2022/07/29 09:40:15;;;;;;;;;;;20.80;65.70;;;;;;5032901;28;19999;-67
2022/07/29 09:42:41;;;;;;;;;;;20.80;65.70;;;;;;5027924;28;19956;-67
2022/07/29 09:45:07;;;;;;;;;;;20.80;65.90;;;;;;5038913;28;20359;-67
2022/07/29 09:47:46;;;;;;;;;;;20.80;65.90;;;;;;5026562;28;19914;-68
2022/07/29 09:50:12;;;;;;;;;;;20.80;65.80;;;;;;5022280;28;19913;-67
2022/07/29 09:52:48;;;;;;;;;;;20.80;65.90;;;;;;5022227;28;19940;-67
2022/07/29 09:55:14;;;;;;;;;;;20.80;65.90;;;;;;5021083;28;19917;-67
2022/07/29 09:57:39;;;;;;;;;;;20.70;65.90;;;;;;5020947;28;19920;-67
2022/07/29 10:00:06;;;;;;;;;;;20.70;66.00;;;;;;5032241;28;20172;-67
2022/07/29 10:02:33;;;;;;;;;;;20.70;66.00;;;;;;5019685;28;20013;-67
2022/07/29 10:04:59;;;;;;;;;;;20.70;66.10;;;;;;5039762;28;19912;-67
2022/07/29 10:07:24;;;;;;;;;;;20.70;66.20;;;;;;5021792;28;19916;-67
2022/07/29 10:09:54;;;;;;;;;;;20.70;66.20;;;;;;5035203;28;20524;-67
2022/07/29 10:12:20;;;;;;;;;;;20.70;66.20;;;;;;5018251;28;19936;-67
2022/07/29 10:14:46;;;;;;;;;;;20.70;66.30;;;;;;5018374;28;20582;-67
2022/07/29 10:17:11;;;;;;;;;;;20.70;66.30;;;;;;5020400;28;20290;-67
2022/07/29 10:19:38;;;;;;;;;;;20.70;66.30;;;;;;5019891;28;19917;-67
2022/07/29 10:22:05;;;;;;;;;;;20.70;66.40;;;;;;5018681;28;19924;-67
2022/07/29 10:24:31;;;;;;;;;;;20.70;66.50;;;;;;5020892;28;19913;-67
2022/07/29 10:26:57;;;;;;;;;;;20.70;66.40;;;;;;5020540;28;19925;-67
2022/07/29 10:29:23;;;;;;;;;;;20.70;66.40;;;;;;5039301;28;20003;-67
2022/07/29 10:31:49;;;;;;;;;;;20.70;66.50;;;;;;5036909;28;20518;-67
2022/07/29 10:34:20;;;;;;;;;;;20.70;66.50;;;;;;5033110;28;19948;-67
2022/07/29 10:36:49;;;;;;;;;;;20.60;66.40;;;;;;5038599;28;19923;-67
2022/07/29 10:39:20;;;;;;;;;;;20.70;66.60;;;;;;5037084;28;20326;-67
2022/07/29 10:41:54;;;;;;;;;;;20.70;66.60;;;;;;5021373;28;19914;-67
2022/07/29 10:44:22;;;;;;;;;;;20.70;66.50;;;;;;5020952;28;19916;-67
2022/07/29 10:46:47;;;;;;;;;;;20.70;66.60;;;;;;5020643;28;19917;-67
2022/07/29 10:49:17;;;;;;;;;;;20.70;66.70;;;;;;5022554;28;19966;-67
2022/07/29 10:51:52;;;;;;;;;;;20.70;66.80;;;;;;5029515;28;19963;-67
2022/07/29 10:54:18;;;;;;;;;;;20.70;66.90;;;;;;5002810;28;19913;-67
2022/07/29 10:56:44;;;;;;;;;;;20.70;66.80;;;;;;5021419;28;19917;-67
2022/07/29 10:59:22;;;;;;;;;;;20.70;66.80;;;;;;5024814;28;19920;-67
2022/07/29 11:01:52;;;;;;;;;;;20.70;66.80;;;;;;5023862;28;19995;-67
2022/07/29 11:04:43;;;;;;;;;;;20.70;66.80;;;;;;5024089;28;19920;-67
2022/07/29 11:07:09;;;;;;;;;;;20.70;66.80;;;;;;5003966;28;19917;-67
2022/07/29 11:09:34;;;;;;;;;;;20.70;66.90;;;;;;5024930;28;19923;-67
2022/07/29 11:12:00;;;;;;;;;;;20.70;67.00;;;;;;5024811;28;19913;-67
2022/07/29 11:14:44;;;;;;;;;;;20.70;67.00;;;;;;5025208;28;19975;-67
2022/07/29 11:17:09;;;;;;;;;;;20.70;67.00;;;;;;5024714;28;20364;-67
2022/07/29 11:19:36;;;;;;;;;;;20.70;67.10;;;;;;5024683;28;19920;-67
2022/07/29 11:22:01;;;;;;;;;;;20.70;67.80;;;;;;5024806;28;20000;-67
2022/07/29 11:24:28;;;;;;;;;;;20.70;67.20;;;;;;5039693;28;20027;-67
2022/07/29 11:27:09;;;;;;;;;;;20.70;67.40;;;;;;5043008;28;19920;-67
2022/07/29 11:29:40;;;;;;;;;;;20.70;67.60;;;;;;5043422;28;19913;-67
2022/07/29 11:32:14;;;;;;;;;;;20.70;67.60;;;;;;5043472;28;20000;-67
2022/07/29 11:34:40;;;;;;;;;;;20.70;67.60;;;;;;5043067;28;19913;-67
2022/07/29 11:37:15;;;;;;;;;;;20.80;67.60;;;;;;5042727;28;20512;-67
2022/07/29 11:40:00;;;;;;;;;;;20.80;67.60;;;;;;5038947;28;20718;-67
2022/07/29 11:42:26;;;;;;;;;;;20.80;67.80;;;;;;5016279;28;19920;-67
2022/07/29 11:45:00;;;;;;;;;;;20.80;68.00;;;;;;5024358;28;19925;-67
2022/07/29 11:47:27;;;;;;;;;;;20.90;68.10;;;;;;5018970;28;19913;-67
2022/07/29 11:49:53;;;;;;;;;;;20.90;68.20;;;;;;5023900;28;19999;-67
2022/07/29 11:52:19;;;;;;;;;;;21.00;68.50;;;;;;5023744;28;19913;-67
2022/07/29 11:54:47;;;;;;;;;;;21.00;68.30;;;;;;5024271;28;19970;-67
2022/07/29 11:57:12;;;;;;;;;;;21.10;68.30;;;;;;5023792;28;19917;-67
2022/07/29 11:59:41;;;;;;;;;;;21.10;68.20;;;;;;5024372;28;19920;-67
2022/07/29 12:02:08;;;;;;;;;;;21.20;68.40;;;;;;5024101;28;19987;-67
2022/07/29 12:04:34;;;;;;;;;;;21.30;68.40;;;;;;5024164;28;20326;-67
2022/07/29 12:07:00;;;;;;;;;;;21.40;68.00;;;;;;5023937;28;20268;-67
2022/07/29 12:09:25;;;;;;;;;;;21.50;67.70;;;;;;5005972;28;19924;-67
2022/07/29 12:11:58;;;;;;;;;;;21.50;67.50;;;;;;5037832;28;19946;-67
2022/07/29 12:14:33;;;;;;;;;;;21.60;67.30;;;;;;5038429;28;19981;-67
2022/07/29 12:16:59;;;;;;;;;;;21.70;67.40;;;;;;5034457;28;20646;-67
2022/07/29 12:19:25;;;;;;;;;;;21.70;67.10;;;;;;5023831;28;19913;-67
2022/07/29 12:21:51;;;;;;;;;;;21.80;67.00;;;;;;5023522;28;20454;-67
2022/07/29 12:24:18;;;;;;;;;;;21.80;66.80;;;;;;5023503;28;20616;-67
2022/07/29 12:26:49;;;;;;;;;;;21.90;66.70;;;;;;5023505;28;19943;-67
2022/07/29 12:29:16;;;;;;;;;;;21.90;66.50;;;;;;5023465;28;19916;-67
2022/07/29 12:31:42;;;;;;;;;;;22.00;66.50;;;;;;5038872;28;20036;-67
2022/07/29 12:34:08;;;;;;;;;;;22.00;66.20;;;;;;5023974;28;20015;-67
2022/07/29 12:36:33;;;;;;;;;;;22.10;66.00;;;;;;5023321;28;19924;-67
2022/07/29 12:38:59;;;;;;;;;;;22.20;66.10;;;;;;5041359;28;19920;-67
2022/07/29 12:41:24;;;;;;;;;;;22.30;65.90;;;;;;5007152;28;19989;-67
2022/07/29 12:43:53;;;;;;;;;;;22.30;65.60;;;;;;5005550;28;20604;-67
2022/07/29 12:46:19;;;;;;;;;;;22.40;65.40;;;;;;5022427;28;19966;-67
2022/07/29 12:48:44;;;;;;;;;;;22.50;65.40;;;;;;5020966;28;19921;-67
2022/07/29 12:51:12;;;;;;;;;;;22.60;65.20;;;;;;5036052;28;19913;-67
2022/07/29 12:53:38;;;;;;;;;;;22.70;65.20;;;;;;5023240;28;19920;-67
2022/07/29 12:56:04;;;;;;;;;;;22.80;65.10;;;;;;5023283;28;19917;-67
2022/07/29 12:58:32;;;;;;;;;;;22.90;64.60;;;;;;5005556;28;19913;-67
2022/07/29 13:01:03;;;;;;;;;;;23.00;64.30;;;;;;5023275;28;20003;-67
2022/07/29 13:03:29;;;;;;;;;;;23.10;64.20;;;;;;5023217;28;20452;-67
2022/07/29 13:05:54;;;;;;;;;;;23.10;63.90;;;;;;5023484;28;19921;-67
2022/07/29 13:08:19;;;;;;;;;;;23.20;63.80;;;;;;5023057;28;19917;-67
2022/07/29 13:10:45;;;;;;;;;;;23.30;63.90;;;;;;5023234;28;19913;-67
2022/07/29 13:13:12;;;;;;;;;;;23.30;63.70;;;;;;5023116;28;19924;-67
2022/07/29 13:15:38;;;;;;;;;;;23.40;63.80;;;;;;5023392;28;19944;-67
2022/07/29 13:18:04;;;;;;;;;;;23.40;63.70;;;;;;5022745;28;19921;-67
2022/07/29 13:20:31;;;;;;;;;;;23.50;63.90;;;;;;5021278;28;20239;-67
2022/07/29 13:22:57;;;;;;;;;;;23.50;63.60;;;;;;5032224;28;19917;-67
2022/07/29 13:25:23;;;;;;;;;;;23.60;63.60;;;;;;5022174;28;19920;-67
2022/07/29 13:27:49;;;;;;;;;;;23.60;63.60;;;;;;5021311;28;19913;-67
2022/07/29 13:30:15;;;;;;;;;;;23.70;63.40;;;;;;5028528;28;19949;-67
2022/07/29 13:32:40;;;;;;;;;;;23.80;63.30;;;;;;5012167;28;19917;-67
2022/07/29 13:35:07;;;;;;;;;;;23.90;63.10;;;;;;5021990;28;20344;-67
2022/07/29 13:37:34;;;;;;;;;;;24.00;62.90;;;;;;5020863;28;20367;-67
2022/07/29 13:40:02;;;;;;;;;;;24.10;62.80;;;;;;5033944;28;19924;-67
2022/07/29 13:42:28;;;;;;;;;;;24.10;62.90;;;;;;5021997;28;19913;-67
2022/07/29 13:44:53;;;;;;;;;;;24.10;63.10;;;;;;5021734;28;19913;-67
2022/07/29 13:47:19;;;;;;;;;;;24.10;62.90;;;;;;5021721;28;19917;-67
2022/07/29 13:49:45;;;;;;;;;;;24.10;62.90;;;;;;5039928;28;19920;-67
2022/07/29 13:52:10;;;;;;;;;;;24.10;62.90;;;;;;5027524;28;20071;-67
2022/07/29 13:54:37;;;;;;;;;;;24.20;62.80;;;;;;5026112;28;20387;-67
2022/07/29 13:57:03;;;;;;;;;;;24.20;62.80;;;;;;5040671;28;19913;-67
2022/07/29 13:59:28;;;;;;;;;;;24.30;62.90;;;;;;5040272;28;20653;-67
2022/07/29 14:01:54;;;;;;;;;;;24.30;62.70;;;;;;5039887;28;19917;-67
2022/07/29 14:04:19;;;;;;;;;;;24.40;62.60;;;;;;5039720;28;20285;-67
2022/07/29 14:06:45;;;;;;;;;;;24.40;62.40;;;;;;5039394;28;19913;-67
2022/07/29 14:09:10;;;;;;;;;;;24.50;62.50;;;;;;5039485;28;19920;-67
2022/07/29 14:11:38;;;;;;;;;;;24.60;62.30;;;;;;5021081;28;19917;-67
2022/07/29 14:14:03;;;;;;;;;;;24.70;62.30;;;;;;5021280;28;20364;-67
2022/07/29 14:16:29;;;;;;;;;;;24.90;62.10;;;;;;5020531;28;19929;-67
2022/07/29 14:18:54;;;;;;;;;;;25.00;61.80;;;;;;5003043;28;19917;-67